sensor_id;sensor_type;location;lat;lon;timestamp;pressure;altitude;pressure_sealevel;temperature;humidity
12468;BME280;57850;52.922;6.256;2023-04-03T00:01:16;103631.63;;;6.49;100.00
12468;BME280;57850;52.922;6.256;2023-04-03T00:03:43;103624.72;;;6.48;100.00
12468;BME280;57850;52.922;6.256;2023-04-03T00:06:10;103624.66;;;6.45;100.00
12468;BME280;57850;52.922;6.256;2023-04-03T00:08:39;103635.72;;;6.39;100.00
12468;BME280;57850;52.922;6.256;2023-04-03T00:11:06;103631.38;;;6.38;100.00
12468;BME280;57850;52.922;6.256;2023-04-03T00:13:33;103640.75;;;6.33;100.00
12468;BME280;57850;52.922;6.256;2023-04-03T00:16:00;103652.63;;;6.25;100.00
12468;BME280;57850;52.922;6.256;2023-04-03T00:18:28;103644.13;;;6.31;100.00
12468;BME280;57850;52.922;6.256;2023-04-03T00:20:55;103646.50;;;6.22;100.00
12468;BME280;57850;52.922;6.256;2023-04-03T00:23:21;103658.47;;;6.17;100.00
12468;BME280;57850;52.922;6.256;2023-04-03T00:25:50;103651.50;;;6.16;100.00
12468;BME280;57850;52.922;6.256;2023-04-03T00:28:16;103652.31;;;6.13;100.00
12468;BME280;57850;52.922;6.256;2023-04-03T00:30:43;103666.84;;;6.08;100.00
12468;BME280;57850;52.922;6.256;2023-04-03T00:33:11;103665.84;;;6.03;100.00
12468;BME280;57850;52.922;6.256;2023-04-03T00:35:38;103669.88;;;5.93;100.00
12468;BME280;57850;52.922;6.256;2023-04-03T00:38:05;103668.97;;;5.91;100.00
12468;BME280;57850;52.922;6.256;2023-04-03T00:40:34;103664.53;;;5.87;100.00
12468;BME280;57850;52.922;6.256;2023-04-03T00:43:10;103661.94;;;5.87;100.00
12468;BME280;57850;52.922;6.256;2023-04-03T00:45:39;103669.75;;;5.89;100.00
12468;BME280;57850;52.922;6.256;2023-04-03T00:48:08;103668.47;;;5.76;100.00
12468;BME280;57850;52.922;6.256;2023-04-03T00:50:39;103673.22;;;5.89;100.00
12468;BME280;57850;52.922;6.256;2023-04-03T00:53:09;103679.81;;;5.80;100.00
12468;BME280;57850;52.922;6.256;2023-04-03T00:55:38;103674.50;;;5.75;100.00
12468;BME280;57850;52.922;6.256;2023-04-03T00:58:07;103676.84;;;5.66;100.00
12468;BME280;57850;52.922;6.256;2023-04-03T01:00:35;103684.34;;;5.57;100.00
12468;BME280;57850;52.922;6.256;2023-04-03T01:03:03;103673.47;;;5.70;100.00
12468;BME280;57850;52.922;6.256;2023-04-03T01:05:30;103678.47;;;5.64;100.00
12468;BME280;57850;52.922;6.256;2023-04-03T01:07:57;103685.16;;;5.56;100.00
12468;BME280;57850;52.922;6.256;2023-04-03T01:10:24;103686.78;;;5.53;100.00
12468;BME280;57850;52.922;6.256;2023-04-03T01:12:51;103689.47;;;5.56;100.00
12468;BME280;57850;52.922;6.256;2023-04-03T01:15:21;103694.19;;;5.42;100.00
12468;BME280;57850;52.922;6.256;2023-04-03T01:17:50;103701.53;;;5.55;100.00
12468;BME280;57850;52.922;6.256;2023-04-03T01:20:50;103704.47;;;5.39;100.00
12468;BME280;57850;52.922;6.256;2023-04-03T01:23:36;103700.31;;;5.44;100.00
12468;BME280;57850;52.922;6.256;2023-04-03T01:26:07;103700.97;;;5.37;100.00
12468;BME280;57850;52.922;6.256;2023-04-03T01:28:36;103704.97;;;5.27;100.00
12468;BME280;57850;52.922;6.256;2023-04-03T01:31:12;103710.97;;;5.26;100.00
12468;BME280;57850;52.922;6.256;2023-04-03T01:33:43;103708.16;;;5.19;100.00
12468;BME280;57850;52.922;6.256;2023-04-03T01:36:13;103710.53;;;5.13;100.00
12468;BME280;57850;52.922;6.256;2023-04-03T01:38:40;103715.63;;;5.10;100.00
12468;BME280;57850;52.922;6.256;2023-04-03T01:41:07;103698.75;;;5.49;100.00
12468;BME280;57850;52.922;6.256;2023-04-03T01:43:33;103698.13;;;5.29;100.00
12468;BME280;57850;52.922;6.256;2023-04-03T01:46:00;103714.34;;;4.97;100.00
12468;BME280;57850;52.922;6.256;2023-04-03T01:48:27;103708.38;;;5.00;100.00
12468;BME280;57850;52.922;6.256;2023-04-03T01:50:55;103714.84;;;4.87;100.00
12468;BME280;57850;52.922;6.256;2023-04-03T01:53:21;103713.25;;;4.91;100.00
12468;BME280;57850;52.922;6.256;2023-04-03T01:55:48;103712.44;;;4.92;100.00
12468;BME280;57850;52.922;6.256;2023-04-03T01:58:14;103724.78;;;4.75;100.00
12468;BME280;57850;52.922;6.256;2023-04-03T02:00:41;103714.56;;;4.78;100.00
12468;BME280;57850;52.922;6.256;2023-04-03T02:03:08;103718.72;;;4.73;100.00
12468;BME280;57850;52.922;6.256;2023-04-03T02:05:34;103717.63;;;4.66;100.00
12468;BME280;57850;52.922;6.256;2023-04-03T02:08:03;103718.53;;;4.68;100.00
12468;BME280;57850;52.922;6.256;2023-04-03T02:10:29;103726.97;;;4.63;100.00
12468;BME280;57850;52.922;6.256;2023-04-03T02:12:56;103726.13;;;4.64;100.00
12468;BME280;57850;52.922;6.256;2023-04-03T02:15:22;103723.13;;;4.77;100.00
12468;BME280;57850;52.922;6.256;2023-04-03T02:17:49;103739.50;;;4.52;100.00
12468;BME280;57850;52.922;6.256;2023-04-03T02:20:16;103743.00;;;4.54;100.00
12468;BME280;57850;52.922;6.256;2023-04-03T02:22:42;103734.84;;;4.66;100.00
12468;BME280;57850;52.922;6.256;2023-04-03T02:25:10;103744.66;;;4.51;100.00
12468;BME280;57850;52.922;6.256;2023-04-03T02:27:37;103748.81;;;4.47;100.00
12468;BME280;57850;52.922;6.256;2023-04-03T02:30:05;103747.94;;;4.47;100.00
12468;BME280;57850;52.922;6.256;2023-04-03T02:32:34;103750.41;;;4.44;100.00
12468;BME280;57850;52.922;6.256;2023-04-03T02:35:01;103750.34;;;4.42;100.00
12468;BME280;57850;52.922;6.256;2023-04-03T02:37:27;103755.66;;;4.23;100.00
12468;BME280;57850;52.922;6.256;2023-04-03T02:39:55;103756.22;;;4.14;100.00
12468;BME280;57850;52.922;6.256;2023-04-03T02:42:23;103751.38;;;4.23;100.00
12468;BME280;57850;52.922;6.256;2023-04-03T02:44:49;103756.41;;;4.19;100.00
12468;BME280;57850;52.922;6.256;2023-04-03T02:47:16;103747.81;;;4.20;100.00
12468;BME280;57850;52.922;6.256;2023-04-03T02:49:42;103750.06;;;4.11;100.00
12468;BME280;57850;52.922;6.256;2023-04-03T02:52:11;103752.94;;;4.18;100.00
12468;BME280;57850;52.922;6.256;2023-04-03T02:54:37;103745.41;;;4.24;100.00
12468;BME280;57850;52.922;6.256;2023-04-03T02:57:04;103755.50;;;4.18;100.00
12468;BME280;57850;52.922;6.256;2023-04-03T02:59:32;103753.59;;;4.13;100.00
12468;BME280;57850;52.922;6.256;2023-04-03T03:01:58;103747.81;;;4.20;100.00
12468;BME280;57850;52.922;6.256;2023-04-03T03:04:25;103759.75;;;4.16;100.00
12468;BME280;57850;52.922;6.256;2023-04-03T03:06:51;103755.28;;;4.12;100.00
12468;BME280;57850;52.922;6.256;2023-04-03T03:09:18;103758.66;;;4.10;100.00
12468;BME280;57850;52.922;6.256;2023-04-03T03:11:45;103751.69;;;4.31;100.00
12468;BME280;57850;52.922;6.256;2023-04-03T03:14:11;103747.00;;;4.45;100.00
12468;BME280;57850;52.922;6.256;2023-04-03T03:16:39;103747.16;;;4.49;100.00
12468;BME280;57850;52.922;6.256;2023-04-03T03:19:06;103753.03;;;4.45;100.00
12468;BME280;57850;52.922;6.256;2023-04-03T03:21:32;103757.75;;;4.33;100.00
12468;BME280;57850;52.922;6.256;2023-04-03T03:23:59;103764.53;;;4.29;100.00
12468;BME280;57850;52.922;6.256;2023-04-03T03:26:26;103760.31;;;4.31;100.00
12468;BME280;57850;52.922;6.256;2023-04-03T03:28:52;103762.78;;;4.28;100.00
12468;BME280;57850;52.922;6.256;2023-04-03T03:31:19;103761.34;;;4.37;100.00
12468;BME280;57850;52.922;6.256;2023-04-03T03:33:47;103758.66;;;4.33;100.00
12468;BME280;57850;52.922;6.256;2023-04-03T03:36:13;103766.16;;;4.26;100.00
12468;BME280;57850;52.922;6.256;2023-04-03T03:38:40;103771.16;;;4.23;100.00
12468;BME280;57850;52.922;6.256;2023-04-03T03:41:07;103765.63;;;4.12;100.00
12468;BME280;57850;52.922;6.256;2023-04-03T03:43:33;103772.91;;;4.00;100.00
12468;BME280;57850;52.922;6.256;2023-04-03T03:46:00;103776.13;;;3.95;100.00
12468;BME280;57850;52.922;6.256;2023-04-03T03:48:26;103770.59;;;3.86;100.00
12468;BME280;57850;52.922;6.256;2023-04-03T03:50:54;103768.34;;;3.93;100.00
12468;BME280;57850;52.922;6.256;2023-04-03T03:53:21;103775.03;;;3.88;100.00
12468;BME280;57850;52.922;6.256;2023-04-03T03:55:47;103771.81;;;3.94;100.00
12468;BME280;57850;52.922;6.256;2023-04-03T03:58:14;103772.03;;;3.77;100.00
12468;BME280;57850;52.922;6.256;2023-04-03T04:00:41;103783.56;;;3.65;100.00
12468;BME280;57850;52.922;6.256;2023-04-03T04:03:07;103770.59;;;3.63;100.00
12468;BME280;57850;52.922;6.256;2023-04-03T04:05:34;103774.59;;;3.55;100.00
12468;BME280;57850;52.922;6.256;2023-04-03T04:08:02;103776.16;;;3.52;100.00
12468;BME280;57850;52.922;6.256;2023-04-03T04:10:28;103766.72;;;3.52;100.00
12468;BME280;57850;52.922;6.256;2023-04-03T04:12:55;103755.72;;;3.56;100.00
12468;BME280;57850;52.922;6.256;2023-04-03T04:15:21;103757.84;;;3.66;100.00
12468;BME280;57850;52.922;6.256;2023-04-03T04:17:48;103767.31;;;3.67;100.00
12468;BME280;57850;52.922;6.256;2023-04-03T04:20:15;103774.13;;;3.65;100.00
12468;BME280;57850;52.922;6.256;2023-04-03T04:22:41;103777.59;;;3.66;100.00
12468;BME280;57850;52.922;6.256;2023-04-03T04:25:09;103790.28;;;3.60;100.00
12468;BME280;57850;52.922;6.256;2023-04-03T04:27:36;103792.78;;;3.58;100.00
12468;BME280;57850;52.922;6.256;2023-04-03T04:30:03;103795.19;;;3.54;100.00
12468;BME280;57850;52.922;6.256;2023-04-03T04:32:30;103792.34;;;3.48;100.00
12468;BME280;57850;52.922;6.256;2023-04-03T04:34:57;103794.91;;;3.48;100.00
12468;BME280;57850;52.922;6.256;2023-04-03T04:37:23;103793.69;;;3.38;100.00
12468;BME280;57850;52.922;6.256;2023-04-03T04:39:50;103800.34;;;3.33;100.00
12468;BME280;57850;52.922;6.256;2023-04-03T04:42:18;103792.59;;;3.33;100.00
12468;BME280;57850;52.922;6.256;2023-04-03T04:44:44;103796.28;;;3.38;100.00
12468;BME280;57850;52.922;6.256;2023-04-03T04:47:11;103795.44;;;3.39;100.00
12468;BME280;57850;52.922;6.256;2023-04-03T04:49:37;103789.97;;;3.32;100.00
12468;BME280;57850;52.922;6.256;2023-04-03T04:52:04;103794.00;;;3.25;100.00
12468;BME280;57850;52.922;6.256;2023-04-03T04:54:31;103782.13;;;3.29;100.00
12468;BME280;57850;52.922;6.256;2023-04-03T04:56:58;103792.72;;;3.36;100.00
12468;BME280;57850;52.922;6.256;2023-04-03T04:59:26;103805.38;;;3.30;100.00
12468;BME280;57850;52.922;6.256;2023-04-03T05:01:52;103803.00;;;3.35;100.00
12468;BME280;57850;52.922;6.256;2023-04-03T05:04:19;103802.13;;;3.34;100.00
12468;BME280;57850;52.922;6.256;2023-04-03T05:06:46;103813.31;;;3.35;100.00
12468;BME280;57850;52.922;6.256;2023-04-03T05:09:13;103818.28;;;3.30;100.00
12468;BME280;57850;52.922;6.256;2023-04-03T05:11:39;103813.88;;;3.28;100.00
12468;BME280;57850;52.922;6.256;2023-04-03T05:14:06;103808.38;;;3.20;100.00
12468;BME280;57850;52.922;6.256;2023-04-03T05:16:34;103819.63;;;3.01;100.00
12468;BME280;57850;52.922;6.256;2023-04-03T05:19:01;103824.78;;;3.01;100.00
12468;BME280;57850;52.922;6.256;2023-04-03T05:21:27;103820.91;;;3.11;100.00
12468;BME280;57850;52.922;6.256;2023-04-03T05:23:57;103808.09;;;3.33;100.00
12468;BME280;57850;52.922;6.256;2023-04-03T05:26:24;103808.66;;;3.26;100.00
12468;BME280;57850;52.922;6.256;2023-04-03T05:28:50;103812.34;;;3.33;100.00
12468;BME280;57850;52.922;6.256;2023-04-03T05:31:17;103811.84;;;3.20;100.00
12468;BME280;57850;52.922;6.256;2023-04-03T05:33:45;103814.00;;;3.31;100.00
12468;BME280;57850;52.922;6.256;2023-04-03T05:36:12;103818.50;;;3.35;100.00
12468;BME280;57850;52.922;6.256;2023-04-03T05:38:39;103818.91;;;3.45;100.00
12468;BME280;57850;52.922;6.256;2023-04-03T05:41:06;103823.00;;;3.40;100.00
12468;BME280;57850;52.922;6.256;2023-04-03T05:43:32;103821.50;;;3.45;100.00
12468;BME280;57850;52.922;6.256;2023-04-03T05:45:59;103815.56;;;3.48;100.00
12468;BME280;57850;52.922;6.256;2023-04-03T05:48:26;103816.19;;;3.42;100.00
12468;BME280;57850;52.922;6.256;2023-04-03T05:50:54;103812.94;;;3.46;100.00
12468;BME280;57850;52.922;6.256;2023-04-03T05:53:22;103813.44;;;3.58;100.00
12468;BME280;57850;52.922;6.256;2023-04-03T05:55:50;103815.44;;;3.65;100.00
12468;BME280;57850;52.922;6.256;2023-04-03T05:58:17;103822.38;;;3.66;100.00
12468;BME280;57850;52.922;6.256;2023-04-03T06:00:43;103815.59;;;3.70;100.00
12468;BME280;57850;52.922;6.256;2023-04-03T06:03:10;103814.88;;;3.72;100.00
12468;BME280;57850;52.922;6.256;2023-04-03T06:05:37;103816.47;;;3.91;100.00
12468;BME280;57850;52.922;6.256;2023-04-03T06:08:05;103816.59;;;3.94;100.00
12468;BME280;57850;52.922;6.256;2023-04-03T06:10:31;103821.16;;;4.01;100.00
12468;BME280;57850;52.922;6.256;2023-04-03T06:12:58;103829.63;;;3.97;100.00
12468;BME280;57850;52.922;6.256;2023-04-03T06:15:25;103831.59;;;4.04;100.00
12468;BME280;57850;52.922;6.256;2023-04-03T06:17:51;103829.69;;;4.21;100.00
12468;BME280;57850;52.922;6.256;2023-04-03T06:20:18;103823.91;;;4.28;100.00
12468;BME280;57850;52.922;6.256;2023-04-03T06:22:45;103823.69;;;4.22;100.00
12468;BME280;57850;52.922;6.256;2023-04-03T06:25:13;103829.69;;;4.21;100.00
12468;BME280;57850;52.922;6.256;2023-04-03T06:27:39;103828.63;;;4.38;100.00
12468;BME280;57850;52.922;6.256;2023-04-03T06:30:07;103829.63;;;4.42;100.00
12468;BME280;57850;52.922;6.256;2023-04-03T06:32:33;103831.31;;;4.41;100.00
12468;BME280;57850;52.922;6.256;2023-04-03T06:35:00;103841.41;;;4.57;100.00
12468;BME280;57850;52.922;6.256;2023-04-03T06:37:26;103839.06;;;4.41;100.00
12468;BME280;57850;52.922;6.256;2023-04-03T06:39:54;103833.75;;;4.60;100.00
12468;BME280;57850;52.922;6.256;2023-04-03T06:42:22;103835.59;;;4.64;100.00
12468;BME280;57850;52.922;6.256;2023-04-03T06:44:48;103839.06;;;4.41;100.00
12468;BME280;57850;52.922;6.256;2023-04-03T06:47:16;103839.06;;;4.65;100.00
12468;BME280;57850;52.922;6.256;2023-04-03T06:49:42;103829.38;;;4.83;100.00
12468;BME280;57850;52.922;6.256;2023-04-03T06:52:09;103845.66;;;4.79;100.00
12468;BME280;57850;52.922;6.256;2023-04-03T06:54:38;103849.75;;;4.74;100.00
12468;BME280;57850;52.922;6.256;2023-04-03T06:57:05;103843.53;;;4.93;100.00
12468;BME280;57850;52.922;6.256;2023-04-03T06:59:34;103846.44;;;5.02;100.00
12468;BME280;57850;52.922;6.256;2023-04-03T07:02:01;103847.50;;;5.07;100.00
12468;BME280;57850;52.922;6.256;2023-04-03T07:04:28;103853.00;;;5.17;100.00
12468;BME280;57850;52.922;6.256;2023-04-03T07:06:55;103851.09;;;5.12;100.00
12468;BME280;57850;52.922;6.256;2023-04-03T07:09:21;103856.59;;;5.21;100.00
12468;BME280;57850;52.922;6.256;2023-04-03T07:11:48;103865.59;;;5.07;100.00
12468;BME280;57850;52.922;6.256;2023-04-03T07:14:14;103861.94;;;5.25;100.00
12468;BME280;57850;52.922;6.256;2023-04-03T07:16:42;103865.72;;;5.10;100.00
12468;BME280;57850;52.922;6.256;2023-04-03T07:19:09;103855.31;;;5.33;100.00
12468;BME280;57850;52.922;6.256;2023-04-03T07:21:35;103845.72;;;5.56;100.00
12468;BME280;57850;52.922;6.256;2023-04-03T07:24:02;103857.31;;;5.42;100.00
12468;BME280;57850;52.922;6.256;2023-04-03T07:26:29;103848.16;;;5.78;100.00
12468;BME280;57850;52.922;6.256;2023-04-03T07:28:56;103853.19;;;5.74;100.00
12468;BME280;57850;52.922;6.256;2023-04-03T07:31:23;103840.19;;;5.98;100.00
12468;BME280;57850;52.922;6.256;2023-04-03T07:33:51;103854.25;;;5.79;100.00
12468;BME280;57850;52.922;6.256;2023-04-03T07:36:20;103847.00;;;5.96;100.00
12468;BME280;57850;52.922;6.256;2023-04-03T07:38:47;103846.84;;;6.18;100.00
12468;BME280;57850;52.922;6.256;2023-04-03T07:41:15;103840.97;;;6.23;100.00
12468;BME280;57850;52.922;6.256;2023-04-03T07:43:42;103836.88;;;6.31;100.00
12468;BME280;57850;52.922;6.256;2023-04-03T07:46:09;103829.44;;;6.42;100.00
12468;BME280;57850;52.922;6.256;2023-04-03T07:48:36;103841.44;;;6.38;100.00
12468;BME280;57850;52.922;6.256;2023-04-03T07:51:04;103839.81;;;6.42;100.00
12468;BME280;57850;52.922;6.256;2023-04-03T07:53:31;103826.16;;;6.79;100.00
12468;BME280;57850;52.922;6.256;2023-04-03T07:55:59;103806.84;;;7.02;100.00
12468;BME280;57850;52.922;6.256;2023-04-03T07:58:28;103808.28;;;7.24;100.00
12468;BME280;57850;52.922;6.256;2023-04-03T08:00:54;103794.22;;;7.50;100.00
12468;BME280;57850;52.922;6.256;2023-04-03T08:03:21;103780.00;;;7.34;100.00
12468;BME280;57850;52.922;6.256;2023-04-03T08:05:48;103774.53;;;7.60;100.00
12468;BME280;57850;52.922;6.256;2023-04-03T08:08:19;103768.59;;;7.65;100.00
12468;BME280;57850;52.922;6.256;2023-04-03T08:10:48;103769.13;;;7.89;100.00
12468;BME280;57850;52.922;6.256;2023-04-03T08:13:14;103765.19;;;8.06;100.00
12468;BME280;57850;52.922;6.256;2023-04-03T08:15:41;103731.38;;;8.47;100.00
12468;BME280;57850;52.922;6.256;2023-04-03T08:18:08;103745.84;;;8.34;100.00
12468;BME280;57850;52.922;6.256;2023-04-03T08:20:35;103743.94;;;8.26;100.00
12468;BME280;57850;52.922;6.256;2023-04-03T08:23:02;103723.41;;;8.86;100.00
12468;BME280;57850;52.922;6.256;2023-04-03T08:25:30;103716.91;;;8.63;100.00
12468;BME280;57850;52.922;6.256;2023-04-03T08:27:56;103698.25;;;8.88;100.00
12468;BME280;57850;52.922;6.256;2023-04-03T08:30:23;103693.16;;;8.92;99.63
12468;BME280;57850;52.922;6.256;2023-04-03T08:32:50;103689.34;;;9.28;100.00
12468;BME280;57850;52.922;6.256;2023-04-03T08:35:16;103682.66;;;9.46;100.00
12468;BME280;57850;52.922;6.256;2023-04-03T08:37:45;103655.41;;;9.88;99.86
12468;BME280;57850;52.922;6.256;2023-04-03T08:40:14;103662.09;;;9.66;98.15
12468;BME280;57850;52.922;6.256;2023-04-03T08:42:49;103646.88;;;10.02;98.46
12468;BME280;57850;52.922;6.256;2023-04-03T08:45:25;103630.66;;;10.26;95.87
12468;BME280;57850;52.922;6.256;2023-04-03T08:47:59;103613.47;;;10.51;96.30
12468;BME280;57850;52.922;6.256;2023-04-03T08:50:34;103601.56;;;10.83;96.29
12468;BME280;57850;52.922;6.256;2023-04-03T08:53:03;103604.97;;;10.74;95.60
12468;BME280;57850;52.922;6.256;2023-04-03T08:55:33;103588.50;;;10.85;94.15
12468;BME280;57850;52.922;6.256;2023-04-03T08:58:04;103576.25;;;10.73;93.75
12468;BME280;57850;52.922;6.256;2023-04-03T09:00:34;103577.16;;;10.81;91.57
12468;BME280;57850;52.922;6.256;2023-04-03T09:03:04;103572.88;;;10.92;92.95
12468;BME280;57850;52.922;6.256;2023-04-03T09:05:39;103572.09;;;11.10;92.53
12468;BME280;57850;52.922;6.256;2023-04-03T09:08:17;103555.69;;;11.35;92.03
12468;BME280;57850;52.922;6.256;2023-04-03T09:10:45;103549.63;;;11.45;90.80
12468;BME280;57850;52.922;6.256;2023-04-03T09:13:22;103511.41;;;12.06;91.24
12468;BME280;57850;52.922;6.256;2023-04-03T09:15:51;103502.72;;;12.15;89.55
12468;BME280;57850;52.922;6.256;2023-04-03T09:18:21;103494.84;;;12.47;89.93
12468;BME280;57850;52.922;6.256;2023-04-03T09:20:57;103474.56;;;13.03;87.31
12468;BME280;57850;52.922;6.256;2023-04-03T09:23:29;103470.19;;;13.07;87.67
12468;BME280;57850;52.922;6.256;2023-04-03T09:26:01;103461.22;;;13.58;86.88
12468;BME280;57850;52.922;6.256;2023-04-03T09:28:33;103427.31;;;14.32;85.83
12468;BME280;57850;52.922;6.256;2023-04-03T09:31:02;103457.13;;;14.25;82.63
12468;BME280;57850;52.922;6.256;2023-04-03T09:33:35;103451.44;;;14.69;81.42
12468;BME280;57850;52.922;6.256;2023-04-03T09:36:02;103412.78;;;15.41;82.50
12468;BME280;57850;52.922;6.256;2023-04-03T09:38:28;103395.50;;;16.29;79.86
12468;BME280;57850;52.922;6.256;2023-04-03T09:41:04;103388.56;;;16.71;79.49
12468;BME280;57850;52.922;6.256;2023-04-03T09:43:33;103407.94;;;16.23;77.38
12468;BME280;57850;52.922;6.256;2023-04-03T09:46:25;103461.06;;;15.40;74.06
12468;BME280;57850;52.922;6.256;2023-04-03T09:49:00;103480.34;;;15.99;70.38
12468;BME280;57850;52.922;6.256;2023-04-03T09:51:29;103477.06;;;15.86;70.16
12468;BME280;57850;52.922;6.256;2023-04-03T09:53:57;103445.41;;;16.38;70.85
12468;BME280;57850;52.922;6.256;2023-04-03T09:56:25;103430.22;;;16.51;71.51
12468;BME280;57850;52.922;6.256;2023-04-03T09:59:08;103478.97;;;15.77;69.91
12468;BME280;57850;52.922;6.256;2023-04-03T10:01:57;103470.97;;;16.35;67.75
12468;BME280;57850;52.922;6.256;2023-04-03T10:04:24;103531.63;;;15.08;68.11
12468;BME280;57850;52.922;6.256;2023-04-03T10:06:52;103485.28;;;15.65;67.78
12468;BME280;57850;52.922;6.256;2023-04-03T10:09:21;103506.38;;;16.17;66.30
12468;BME280;57850;52.922;6.256;2023-04-03T10:12:00;103480.34;;;16.00;68.52
12468;BME280;57850;52.922;6.256;2023-04-03T10:14:31;103409.53;;;17.54;69.15
12468;BME280;57850;52.922;6.256;2023-04-03T10:17:03;103408.81;;;17.47;67.68
12468;BME280;57850;52.922;6.256;2023-04-03T10:19:39;103404.31;;;18.20;68.02
12468;BME280;57850;52.922;6.256;2023-04-03T10:22:22;103425.91;;;17.70;66.64
12468;BME280;57850;52.922;6.256;2023-04-03T10:25:01;103537.56;;;15.25;67.02
12468;BME280;57850;52.922;6.256;2023-04-03T10:27:39;103508.44;;;15.39;67.70
12468;BME280;57850;52.922;6.256;2023-04-03T10:30:27;103407.63;;;17.60;67.49
12468;BME280;57850;52.922;6.256;2023-04-03T10:33:05;103450.31;;;17.01;68.38
12468;BME280;57850;52.922;6.256;2023-04-03T10:35:44;103527.00;;;15.27;65.84
12468;BME280;57850;52.922;6.256;2023-04-03T10:38:20;103438.50;;;16.79;68.38
12468;BME280;57850;52.922;6.256;2023-04-03T10:40:57;103443.19;;;16.65;68.13
12468;BME280;57850;52.922;6.256;2023-04-03T10:43:31;103370.31;;;18.08;69.69
12468;BME280;57850;52.922;6.256;2023-04-03T10:46:04;103387.09;;;18.07;65.42
12468;BME280;57850;52.922;6.256;2023-04-03T10:48:41;103393.91;;;18.14;67.11
12468;BME280;57850;52.922;6.256;2023-04-03T10:51:23;103327.22;;;19.23;67.17
12468;BME280;57850;52.922;6.256;2023-04-03T10:53:56;103346.75;;;19.19;64.96
12468;BME280;57850;52.922;6.256;2023-04-03T10:56:31;103388.72;;;18.11;69.01
12468;BME280;57850;52.922;6.256;2023-04-03T10:59:13;103347.53;;;18.35;68.20
12468;BME280;57850;52.922;6.256;2023-04-03T11:01:45;103344.31;;;18.54;65.42
12468;BME280;57850;52.922;6.256;2023-04-03T11:04:15;103379.09;;;18.41;68.02
12468;BME280;57850;52.922;6.256;2023-04-03T11:06:49;103321.72;;;19.29;66.02
12468;BME280;57850;52.922;6.256;2023-04-03T11:09:22;103307.81;;;19.73;65.71
12468;BME280;57850;52.922;6.256;2023-04-03T11:11:55;103318.25;;;19.80;64.47
12468;BME280;57850;52.922;6.256;2023-04-03T11:14:28;103305.34;;;19.69;63.96
12468;BME280;57850;52.922;6.256;2023-04-03T11:17:05;103311.13;;;19.80;65.70
12468;BME280;57850;52.922;6.256;2023-04-03T11:19:39;103299.06;;;19.96;65.57
12468;BME280;57850;52.922;6.256;2023-04-03T11:22:15;103288.50;;;20.43;65.56
12468;BME280;57850;52.922;6.256;2023-04-03T11:24:56;103281.78;;;20.34;64.70
12468;BME280;57850;52.922;6.256;2023-04-03T11:27:25;103281.56;;;20.15;63.99
12468;BME280;57850;52.922;6.256;2023-04-03T11:29:57;103283.81;;;20.03;64.94
12468;BME280;57850;52.922;6.256;2023-04-03T11:32:42;103333.59;;;19.16;62.73
12468;BME280;57850;52.922;6.256;2023-04-03T11:35:14;103277.53;;;20.05;63.42
12468;BME280;57850;52.922;6.256;2023-04-03T11:37:44;103420.78;;;17.63;65.12
12468;BME280;57850;52.922;6.256;2023-04-03T11:40:21;103496.75;;;14.92;67.34
12468;BME280;57850;52.922;6.256;2023-04-03T11:42:52;103405.22;;;16.29;66.50
12468;BME280;57850;52.922;6.256;2023-04-03T11:45:34;103251.72;;;19.62;66.53
12468;BME280;57850;52.922;6.256;2023-04-03T11:48:04;103215.00;;;20.46;65.90
12468;BME280;57850;52.922;6.256;2023-04-03T11:50:40;103243.66;;;20.13;64.04
12468;BME280;57850;52.922;6.256;2023-04-03T11:53:33;103309.81;;;18.59;68.69
12468;BME280;57850;52.922;6.256;2023-04-03T11:56:26;103225.63;;;20.23;68.95
12468;BME280;57850;52.922;6.256;2023-04-03T11:59:22;103258.25;;;19.52;64.50
12468;BME280;57850;52.922;6.256;2023-04-03T12:01:51;103302.16;;;18.79;63.54
12468;BME280;57850;52.922;6.256;2023-04-03T12:04:24;103261.94;;;19.22;64.82
12468;BME280;57850;52.922;6.256;2023-04-03T12:10:01;103231.94;;;20.19;65.49
12468;BME280;57850;52.922;6.256;2023-04-03T12:12:40;103223.56;;;20.08;64.93
12468;BME280;57850;52.922;6.256;2023-04-03T12:15:50;103253.56;;;19.60;62.32
12468;BME280;57850;52.922;6.256;2023-04-03T12:18:57;103160.22;;;21.09;65.42
12468;BME280;57850;52.922;6.256;2023-04-03T12:24:38;103193.41;;;20.34;66.46
12468;BME280;57850;52.922;6.256;2023-04-03T12:27:28;103179.44;;;20.72;63.91
12468;BME280;57850;52.922;6.256;2023-04-03T12:30:04;103182.91;;;20.74;65.87
12468;BME280;57850;52.922;6.256;2023-04-03T12:32:44;103169.16;;;20.86;63.17
12468;BME280;57850;52.922;6.256;2023-04-03T12:35:23;103161.75;;;20.72;64.78
12468;BME280;57850;52.922;6.256;2023-04-03T12:38:17;103213.56;;;19.91;64.81
12468;BME280;57850;52.922;6.256;2023-04-03T12:40:52;103199.69;;;20.08;64.16
12468;BME280;57850;52.922;6.256;2023-04-03T12:43:39;103163.28;;;20.78;65.34
12468;BME280;57850;52.922;6.256;2023-04-03T12:46:14;103222.44;;;19.67;64.66
12468;BME280;57850;52.922;6.256;2023-04-03T12:48:48;103233.22;;;19.10;64.99
12468;BME280;57850;52.922;6.256;2023-04-03T12:51:19;103231.94;;;19.21;64.25
12468;BME280;57850;52.922;6.256;2023-04-03T12:53:56;103197.88;;;20.08;64.41
12468;BME280;57850;52.922;6.256;2023-04-03T12:56:28;103171.34;;;20.55;65.12
12468;BME280;57850;52.922;6.256;2023-04-03T12:59:13;103160.25;;;20.65;65.76
12468;BME280;57850;52.922;6.256;2023-04-03T13:01:40;103164.41;;;20.29;64.65
12468;BME280;57850;52.922;6.256;2023-04-03T13:04:06;103158.91;;;20.34;66.42
12468;BME280;57850;52.922;6.256;2023-04-03T13:06:38;103220.16;;;19.30;64.01
12468;BME280;57850;52.922;6.256;2023-04-03T13:09:14;103219.72;;;19.17;65.50
12468;BME280;57850;52.922;6.256;2023-04-03T13:11:45;103159.81;;;20.11;64.38